GMTN 
Saniat Rmel Airport
Morocco 
ICAOIATAStatus
GMTNTTUOperational
LatitudeLongitude
35° 35' 39" N5° 19' 12" W
35.594299-5.320020
Local Time (DST+1)UTC (GMT0)
04-25-2014 04:27 am04-25-2014 03:27
Sunrise-SunsetLocalUTC
Begin Civil Twilight06:07 am05:07
Sunrise06:34 am05:34
Sunset08:04 pm19:04
End Civil Twilight08:31 pm19:31

Current Weather

METARObservedFlight Conditions

GMTN 250300Z AUTO 28007KT R24///// /// 15/10 Q1023

Fri, Apr 25, 2014 @ 03:00 UTC(Z)

(27 Minutes ago)

Unknown
WindVisibilityCloudsConditions
280° at 7 knots (13 kph)
  • No significant weather
TemperaturesReadingsPrecipitation
Current Temp15°C (59°F)
Dewpoint10°C (50°F)
Humidity72%
Altimeter30.21"Hg
Sea Level Pressure1023mb
Field Elevation32.81'
None Recorded

Additional weather within a 92.6km radius of GMTN

Location METAR
GMTT

55.9km W (285°)

27 minutes ago
LXGB

61.9km N (360°)

37 minutes ago
VFR VFR    MVFR MVFR    IFR IFR    LIFR LIFR    Unknown Unknown

Previous 24 hour Weather Graphs

  Loading...

CheckWX.com is intended as a tool to help pilots better visualize weather data.   It is not intended as a substitute for an official weather briefing obtained from a Flight Service Station.
CheckWX.com does not meet the FAA requirements for an official pre-flight weather briefing.   Therefore, it's important that pilots still call and obtain an official FSS pre-flight weather briefing.